Time;durP1;ratioP1;P1;durP2;ratioP2;P2;SDS_P1;SDS_P2;PMS_P1;PMS_P2;Temp;Humidity;BMP_temperature;BMP_pressure;BME280_temperature;BME280_humidity;BME280_pressure;Samples;Min_cycle;Max_cycle;Signal;HPM_P1;HPM_P2
2023/07/02 00:00:55;;;;;;;10.07;4.72;;;;;;;17.81;100.00;93937.31;5094779;28;20027;-83
2023/07/02 00:03:21;;;;;;;7.30;4.43;;;;;;;17.35;100.00;93942.44;5095061;28;20081;-83
2023/07/02 00:05:50;;;;;;;11.57;5.03;;;;;;;17.24;100.00;93936.75;5093380;28;20433;-83
2023/07/02 00:08:16;;;;;;;8.85;4.88;;;;;;;17.35;100.00;93931.84;5094615;28;20074;-83
2023/07/02 00:10:43;;;;;;;10.50;4.25;;;;;;;17.61;100.00;93922.97;5093455;28;20233;-83
2023/07/02 00:13:08;;;;;;;8.65;4.85;;;;;;;17.60;100.00;93923.31;5093641;28;20032;-82
2023/07/02 00:15:34;;;;;;;10.23;4.28;;;;;;;17.18;100.00;93926.66;5093712;28;20085;-82
2023/07/02 00:17:59;;;;;;;9.27;4.70;;;;;;;17.23;100.00;93921.22;5092858;28;20036;-83
2023/07/02 00:20:25;;;;;;;8.57;4.55;;;;;;;17.32;100.00;93919.25;5093299;28;20031;-83
2023/07/02 00:22:50;;;;;;;8.23;3.85;;;;;;;17.42;100.00;93914.69;5076479;28;20037;-82
2023/07/02 00:25:15;;;;;;;9.07;4.60;;;;;;;17.47;100.00;93920.59;5093174;28;20028;-82
2023/07/02 00:27:41;;;;;;;8.07;4.25;;;;;;;17.50;100.00;93919.16;5092940;28;20403;-83
2023/07/02 00:30:08;;;;;;;6.30;3.88;;;;;;;17.47;100.00;93922.44;5093054;28;20051;-83
2023/07/02 00:32:33;;;;;;;7.38;4.30;;;;;;;17.50;100.00;93927.09;5092616;28;20062;-81
2023/07/02 00:34:59;;;;;;;12.07;4.68;;;;;;;17.13;100.00;93926.84;5094237;28;20051;-82
2023/07/02 00:37:24;;;;;;;7.13;4.72;;;;;;;16.91;100.00;93925.97;5092883;28;20020;-83
2023/07/02 00:39:50;;;;;;;8.68;4.78;;;;;;;16.79;100.00;93926.66;5093011;28;20433;-81
2023/07/02 00:42:16;;;;;;;10.15;4.65;;;;;;;16.93;100.00;93927.22;5076364;28;20089;-81
2023/07/02 00:44:42;;;;;;;10.05;4.80;;;;;;;16.71;100.00;93930.88;5094236;28;20492;-80
2023/07/02 00:47:11;;;;;;;10.43;4.78;;;;;;;16.58;100.00;93931.84;5092322;28;20024;-80
2023/07/02 00:49:37;;;;;;;7.82;4.35;;;;;;;16.68;100.00;93926.22;5092718;28;20144;-81
2023/07/02 00:52:03;;;;;;;7.70;4.88;;;;;;;16.76;100.00;93930.69;5092972;28;20036;-81
2023/07/02 00:54:30;;;;;;;9.00;4.57;;;;;;;16.94;100.00;93922.72;5092765;28;20096;-81
2023/07/02 00:56:55;;;;;;;6.10;3.83;;;;;;;17.09;100.00;93922.22;5092682;28;20056;-82
2023/07/02 00:59:21;;;;;;;6.78;3.75;;;;;;;17.04;100.00;93926.91;5092656;28;20048;-83
2023/07/02 01:01:49;;;;;;;5.63;3.80;;;;;;;17.07;100.00;93924.41;5092736;28;20028;-83
2023/07/02 01:04:17;;;;;;;6.72;3.97;;;;;;;17.10;100.00;93929.06;5092646;28;20081;-83
2023/07/02 01:06:43;;;;;;;6.97;4.55;;;;;;;16.64;100.00;93922.66;5092255;28;20034;-83
2023/07/02 01:09:09;;;;;;;13.13;4.57;;;;;;;16.58;100.00;93932.66;5074737;28;20028;-83
2023/07/02 01:11:38;;;;;;;9.35;4.50;;;;;;;16.54;100.00;93927.22;5078748;28;20495;-83
2023/07/02 01:14:08;;;;;;;11.18;4.35;;;;;;;16.38;100.00;93937.50;5079580;28;20416;-83
2023/07/02 01:16:35;;;;;;;7.50;4.40;;;;;;;16.35;100.00;93927.56;5081922;28;20036;-82
2023/07/02 01:19:04;;;;;;;8.18;4.03;;;;;;;16.40;100.00;93931.91;5074899;28;20033;-82
2023/07/02 01:21:31;;;;;;;7.53;3.90;;;;;;;16.38;100.00;93929.56;5070353;28;20024;-82
2023/07/02 01:24:00;;;;;;;6.47;4.05;;;;;;;16.56;100.00;93939.34;5084408;28;20077;-82
2023/07/02 01:26:34;;;;;;;6.25;3.95;;;;;;;16.49;100.00;93934.53;5073786;28;20386;-82
2023/07/02 01:29:12;;;;;;;8.10;4.20;;;;;;;16.45;100.00;93918.50;5056742;28;20028;-82
2023/07/02 01:31:38;;;;;;;5.57;3.55;;;;;;;16.65;100.00;93918.94;5074874;28;20025;-82
2023/07/02 01:34:04;;;;;;;6.93;3.50;;;;;;;16.83;100.00;93922.28;5073462;28;20077;-83
2023/07/02 01:36:30;;;;;;;8.65;3.78;;;;;;;16.77;100.00;93921.66;5075304;28;20024;-83
2023/07/02 01:38:55;;;;;;;7.82;4.00;;;;;;;16.95;100.00;93914.44;5094915;28;20024;-81
2023/07/02 01:41:20;;;;;;;7.70;3.83;;;;;;;17.05;100.00;93918.63;5094141;28;20460;-80
2023/07/02 01:43:46;;;;;;;12.85;3.70;;;;;;;16.99;100.00;93919.09;5093753;28;20028;-80
2023/07/02 01:46:12;;;;;;;8.07;3.67;;;;;;;17.04;100.00;93924.25;5097303;28;20028;-81
2023/07/02 01:48:38;;;;;;;6.07;3.50;;;;;;;17.05;100.00;93928.44;5085524;28;20346;-81
2023/07/02 01:51:03;;;;;;;9.18;3.38;;;;;;;17.10;100.00;93925.63;5062085;28;20032;-81
2023/07/02 01:53:29;;;;;;;7.18;3.92;;;;;;;16.95;100.00;93929.56;5078612;28;20031;-81
2023/07/02 01:55:54;;;;;;;7.43;4.40;;;;;;;16.72;100.00;93924.50;5078618;28;20025;-82
2023/07/02 01:58:20;;;;;;;6.72;3.50;;;;;;;16.54;100.00;93923.78;5061909;28;20122;-82
2023/07/02 02:00:45;;;;;;;9.05;3.83;;;;;;;16.68;100.00;93928.88;5078518;28;20020;-83
2023/07/02 02:03:11;;;;;;;11.68;4.10;;;;;;;16.54;100.00;93926.41;5078475;28;20058;-83
2023/07/02 02:05:36;;;;;;;7.03;3.83;;;;;;;16.49;100.00;93921.31;5061884;28;20062;-83
2023/07/02 02:08:01;;;;;;;9.80;3.80;;;;;;;16.46;100.00;93922.72;5078346;28;20035;-83
2023/07/02 02:10:27;;;;;;;7.78;3.60;;;;;;;16.40;100.00;93910.75;5079412;28;20110;-81
2023/07/02 02:12:52;;;;;;;6.85;3.65;;;;;;;16.52;100.00;93915.38;5078421;28;20421;-81
2023/07/02 02:15:18;;;;;;;7.40;3.60;;;;;;;16.43;100.00;93915.41;5079346;28;20032;-81
2023/07/02 02:17:45;;;;;;;8.63;3.78;;;;;;;16.63;100.00;93913.16;5078286;28;20032;-82
2023/07/02 02:20:11;;;;;;;6.93;3.60;;;;;;;16.56;100.00;93920.81;5079310;28;20388;-83
2023/07/02 02:22:36;;;;;;;5.82;3.90;;;;;;;16.68;100.00;93913.00;5077922;28;20078;-81
2023/07/02 02:25:03;;;;;;;7.88;3.65;;;;;;;16.74;100.00;93914.38;5077982;28;20445;-80
2023/07/02 02:27:28;;;;;;;6.32;3.80;;;;;;;16.85;100.00;93916.69;5078861;28;20029;-80
2023/07/02 02:29:54;;;;;;;8.63;3.83;;;;;;;16.35;100.00;93921.47;5077947;28;20031;-80
2023/07/02 02:32:21;;;;;;;5.72;3.92;;;;;;;16.33;100.00;93926.31;5077879;28;20025;-81
2023/07/02 02:34:46;;;;;;;10.27;5.03;;;;;;;16.32;100.00;93917.63;5077808;28;20024;-80
2023/07/02 02:37:12;;;;;;;5.47;3.45;;;;;;;16.51;100.00;93911.97;5061192;28;20051;-80
2023/07/02 02:39:37;;;;;;;6.18;3.60;;;;;;;16.58;100.00;93911.50;5078953;28;20032;-81
2023/07/02 02:42:03;;;;;;;10.40;3.50;;;;;;;16.69;100.00;93909.28;5061147;28;20103;-80
2023/07/02 02:44:29;;;;;;;7.10;2.90;;;;;;;16.80;100.00;93910.47;5077638;28;20025;-82
2023/07/02 02:46:54;;;;;;;5.55;3.05;;;;;;;16.82;100.00;93915.44;5078532;28;20028;-81
2023/07/02 02:49:20;;;;;;;6.30;3.03;;;;;;;16.94;100.00;93912.13;5077587;28;20020;-81
2023/07/02 02:51:45;;;;;;;6.03;3.33;;;;;;;16.95;100.00;93913.69;5077429;28;20039;-81
2023/07/02 02:54:11;;;;;;;4.38;3.08;;;;;;;16.76;100.00;93914.84;5078587;28;20037;-80
2023/07/02 02:56:36;;;;;;;6.30;2.72;;;;;;;16.81;100.00;93912.03;5077071;28;20025;-82
2023/07/02 02:59:02;;;;;;;4.53;3.30;;;;;;;16.79;100.00;93922.16;5078563;28;20036;-82
2023/07/02 03:01:30;;;;;;;9.18;2.92;;;;;;;16.78;100.00;93917.16;5077359;28;20490;-82
2023/07/02 03:03:58;;;;;;;6.03;3.05;;;;;;;16.53;100.00;93919.56;5077236;28;20024;-82
2023/07/02 03:06:23;;;;;;;5.18;3.40;;;;;;;16.56;100.00;93918.19;5077153;28;20067;-83
2023/07/02 03:08:49;;;;;;;6.93;3.47;;;;;;;16.52;100.00;93933.91;5078240;28;20056;-83
2023/07/02 03:11:14;;;;;;;7.30;3.70;;;;;;;16.57;100.00;93922.38;5077321;28;20035;-81
2023/07/02 03:13:40;;;;;;;6.75;3.22;;;;;;;16.45;100.00;93923.81;5060615;28;20093;-81
2023/07/02 03:16:05;;;;;;;7.40;3.78;;;;;;;16.34;100.00;93920.72;5094491;28;20028;-80
2023/07/02 03:18:31;;;;;;;5.70;3.30;;;;;;;16.52;100.00;93925.97;5097005;28;20089;-81
2023/07/02 03:20:56;;;;;;;5.25;3.17;;;;;;;16.56;100.00;93921.59;5097234;28;20028;-81
2023/07/02 03:23:22;;;;;;;5.25;3.10;;;;;;;16.61;100.00;93926.72;5098308;28;20027;-81
2023/07/02 03:25:47;;;;;;;5.80;3.15;;;;;;;16.60;100.00;93919.09;5097007;28;20429;-80
2023/07/02 03:28:13;;;;;;;5.57;3.30;;;;;;;16.54;100.00;93919.28;5096938;28;20353;-81
2023/07/02 03:30:38;;;;;;;4.97;3.42;;;;;;;16.66;100.00;93926.53;5097036;28;20024;-81
2023/07/02 03:33:04;;;;;;;8.30;3.15;;;;;;;16.85;100.00;93928.03;5097011;28;20103;-81
2023/07/02 03:35:29;;;;;;;5.28;3.38;;;;;;;16.78;100.00;93930.41;5098106;28;20173;-80
2023/07/02 03:37:54;;;;;;;5.28;3.25;;;;;;;16.75;100.00;93929.16;5097872;28;20024;-81
2023/07/02 03:40:20;;;;;;;6.10;3.42;;;;;;;16.80;100.00;93926.34;5094939;28;20073;-81
2023/07/02 03:42:45;;;;;;;4.45;2.85;;;;;;;16.87;100.00;93925.84;5096623;28;20326;-81
2023/07/02 03:45:11;;;;;;;14.52;3.60;;;;;;;16.79;100.00;93934.59;5086200;28;20027;-81
2023/07/02 03:47:36;;;;;;;7.88;3.60;;;;;;;16.88;100.00;93934.56;5078578;28;20028;-83
2023/07/02 03:50:02;;;;;;;6.90;3.25;;;;;;;16.64;100.00;93939.31;5096455;28;20028;-83
2023/07/02 03:52:28;;;;;;;5.90;3.40;;;;;;;16.40;100.00;93947.78;5096655;28;20032;-82
2023/07/02 03:54:53;;;;;;;9.60;3.25;;;;;;;16.44;100.00;93948.69;5096617;28;20027;-83
2023/07/02 03:57:19;;;;;;;6.50;3.42;;;;;;;16.63;100.00;93953.63;5079697;28;20085;-83
2023/07/02 03:59:46;;;;;;;5.50;3.35;;;;;;;16.60;100.00;93950.81;5079743;28;20042;-83
2023/07/02 04:02:11;;;;;;;8.23;3.30;;;;;;;16.55;100.00;93954.41;5079774;28;20425;-83
2023/07/02 04:04:36;;;;;;;5.20;3.63;;;;;;;16.72;100.00;93942.25;5096555;28;20028;-83
2023/07/02 04:07:02;;;;;;;7.53;3.25;;;;;;;16.65;100.00;93954.09;5096701;28;20032;-83
2023/07/02 04:09:27;;;;;;;5.60;3.58;;;;;;;16.59;100.00;93946.63;5095354;28;20027;-83
2023/07/02 04:11:53;;;;;;;8.45;3.35;;;;;;;16.51;100.00;93961.44;5096086;28;20027;-83
2023/07/02 04:14:18;;;;;;;6.32;3.60;;;;;;;16.60;100.00;93962.19;5097283;28;20035;-83
2023/07/02 04:16:44;;;;;;;7.32;3.45;;;;;;;16.63;100.00;93964.19;5096052;28;20031;-83
2023/07/02 04:19:10;;;;;;;7.07;3.70;;;;;;;16.72;100.00;93960.78;5079414;28;20024;-83
2023/07/02 04:21:35;;;;;;;6.03;3.25;;;;;;;16.83;100.00;93951.38;5097093;28;20031;-83
2023/07/02 04:24:05;;;;;;;9.43;3.88;;;;;;;16.90;100.00;93959.63;5079348;28;20056;-83
2023/07/02 04:26:30;;;;;;;4.93;3.05;;;;;;;17.00;100.00;93958.50;5097031;28;20032;-83
2023/07/02 04:28:56;;;;;;;7.40;3.10;;;;;;;16.89;100.00;93955.41;5097015;28;20039;-83
2023/07/02 04:31:21;;;;;;;4.85;3.22;;;;;;;16.85;100.00;93970.34;5095922;28;20038;-83
2023/07/02 04:33:47;;;;;;;6.07;3.20;;;;;;;16.86;100.00;93961.34;5095863;28;20455;-83
2023/07/02 04:36:12;;;;;;;4.78;3.25;;;;;;;17.00;100.00;93963.81;5095927;28;20099;-82
2023/07/02 04:38:39;;;;;;;5.15;3.20;;;;;;;17.07;100.00;93972.03;5096849;28;20032;-83
2023/07/02 04:41:05;;;;;;;6.78;3.10;;;;;;;17.23;100.00;93966.22;5079342;28;20383;-83
2023/07/02 04:43:33;;;;;;;5.07;3.00;;;;;;;17.33;100.00;93971.13;5095993;28;20081;-83
2023/07/02 04:45:59;;;;;;;7.50;3.20;;;;;;;17.36;100.00;93973.16;5095651;28;20032;-83
2023/07/02 04:48:25;;;;;;;6.50;3.10;;;;;;;17.28;100.00;93975.81;5095871;28;20031;-82
2023/07/02 04:50:50;;;;;;;5.75;4.10;;;;;;;17.22;100.00;93975.25;5096708;28;20524;-83
2023/07/02 04:53:15;;;;;;;6.50;3.80;;;;;;;17.24;100.00;93973.06;5095588;28;20038;-83
2023/07/02 04:55:41;;;;;;;4.90;3.20;;;;;;;17.18;100.00;93980.41;5095575;28;20028;-83
2023/07/02 04:58:07;;;;;;;6.05;3.53;;;;;;;17.26;100.00;93976.16;5095718;28;20122;-83
2023/07/02 05:00:32;;;;;;;5.30;3.53;;;;;;;17.48;100.00;93974.31;5095570;28;20036;-83
2023/07/02 05:02:58;;;;;;;6.30;3.25;;;;;;;17.63;100.00;93973.75;5095466;28;20055;-83
2023/07/02 05:05:23;;;;;;;4.80;3.10;;;;;;;17.83;100.00;93975.97;5096639;28;20028;-83
2023/07/02 05:07:48;;;;;;;4.85;3.25;;;;;;;17.84;100.00;93980.97;5095354;28;20032;-83
2023/07/02 05:10:14;;;;;;;5.82;3.30;;;;;;;17.69;100.00;93984.19;5095488;28;20080;-83
2023/07/02 05:12:40;;;;;;;5.10;3.50;;;;;;;17.91;100.00;93985.75;5095452;28;20092;-83
2023/07/02 05:15:06;;;;;;;6.28;3.28;;;;;;;18.05;100.00;93978.34;5095423;28;20039;-83
2023/07/02 05:17:34;;;;;;;5.78;3.28;;;;;;;18.15;100.00;93985.13;5096714;28;20031;-83
2023/07/02 05:20:00;;;;;;;5.25;3.40;;;;;;;18.20;100.00;93989.44;5098981;28;20173;-83
2023/07/02 05:22:26;;;;;;;4.90;3.15;;;;;;;18.32;100.00;93984.19;5100630;28;20055;-82
2023/07/02 05:24:51;;;;;;;7.18;3.75;;;;;;;18.13;100.00;93997.13;5099490;28;20028;-83
2023/07/02 05:27:17;;;;;;;4.57;3.10;;;;;;;18.21;100.00;93994.41;5094184;28;20039;-83
2023/07/02 05:29:43;;;;;;;5.85;3.40;;;;;;;18.18;100.00;94002.25;5079813;28;20465;-83
2023/07/02 05:32:08;;;;;;;5.57;3.40;;;;;;;18.29;100.00;93997.31;5079321;28;20038;-84
2023/07/02 05:34:34;;;;;;;8.77;3.35;;;;;;;18.43;100.00;93995.19;5080147;28;20032;-83
2023/07/02 05:36:59;;;;;;;5.78;3.35;;;;;;;18.61;100.00;93992.34;5078845;28;20442;-83
2023/07/02 05:39:25;;;;;;;6.95;3.30;;;;;;;18.78;100.00;93999.38;5078877;28;20055;-83
2023/07/02 05:41:50;;;;;;;7.57;3.10;;;;;;;18.94;100.00;93984.38;5078869;28;20353;-84
2023/07/02 05:44:16;;;;;;;5.53;3.25;;;;;;;18.94;100.00;93991.56;5079962;28;20035;-84
2023/07/02 05:46:41;;;;;;;6.55;3.55;;;;;;;19.16;100.00;93995.72;5078514;28;20089;-84
2023/07/02 05:49:07;;;;;;;5.65;3.47;;;;;;;19.42;100.00;93991.19;5078638;28;20034;-84
2023/07/02 05:51:32;;;;;;;4.05;3.00;;;;;;;19.52;100.00;93993.41;5078612;28;20043;-84
2023/07/02 05:53:57;;;;;;;4.75;2.95;;;;;;;19.31;100.00;93990.84;5078906;28;20032;-84
2023/07/02 05:56:23;;;;;;;4.22;2.97;;;;;;;19.45;100.00;93993.94;5079738;28;20434;-84
2023/07/02 05:58:49;;;;;;;7.65;2.70;;;;;;;19.58;100.00;93994.72;5079549;28;20495;-84
2023/07/02 06:01:14;;;;;;;5.50;2.80;;;;;;;19.54;100.00;94004.47;5078451;28;20029;-84
2023/07/02 06:03:40;;;;;;;5.57;3.03;;;;;;;19.36;100.00;93999.34;5078287;28;20249;-85
2023/07/02 06:06:06;;;;;;;6.63;3.15;;;;;;;19.53;100.00;93997.59;5088924;28;20168;-84
2023/07/02 06:08:31;;;;;;;7.97;3.08;;;;;;;19.47;100.00;94005.00;5098656;28;20036;-84
2023/07/02 06:10:56;;;;;;;5.18;3.20;;;;;;;19.94;100.00;94005.66;5098537;28;20495;-84
2023/07/02 06:13:22;;;;;;;7.90;3.60;;;;;;;20.00;100.00;93998.22;5099682;28;20035;-84
2023/07/02 06:15:47;;;;;;;6.35;3.53;;;;;;;19.86;100.00;94011.81;5098546;28;20077;-85
2023/07/02 06:18:13;;;;;;;5.28;3.20;;;;;;;20.08;100.00;94012.50;5099551;28;20842;-84
2023/07/02 06:20:39;;;;;;;5.50;3.30;;;;;;;19.86;100.00;94014.47;5098610;28;20073;-84
2023/07/02 06:23:04;;;;;;;6.53;2.90;;;;;;;19.84;100.00;94014.84;5098223;28;20031;-84
2023/07/02 06:25:30;;;;;;;7.75;3.50;;;;;;;19.99;100.00;94013.38;5099059;28;20031;-84
2023/07/02 06:27:58;;;;;;;7.80;3.33;;;;;;;20.15;100.00;94018.78;5098174;28;20050;-85
2023/07/02 06:30:26;;;;;;;4.55;2.95;;;;;;;20.20;100.00;94023.09;5097720;28;20028;-84
2023/07/02 06:32:52;;;;;;;6.65;3.08;;;;;;;20.80;100.00;94016.31;5098224;28;20032;-84
2023/07/02 06:35:35;;;;;;;6.18;3.08;;;;;;;20.92;100.00;94021.59;5098056;28;20330;-85
2023/07/02 06:38:00;;;;;;;3.75;2.70;;;;;;;21.23;100.00;94019.31;5099215;28;20032;-84
2023/07/02 06:40:26;;;;;;;6.10;3.03;;;;;;;21.27;100.00;94020.97;5098007;28;20028;-85
2023/07/02 06:42:51;;;;;;;3.85;2.78;;;;;;;21.30;100.00;94022.13;5098229;28;20035;-84
2023/07/02 06:45:17;;;;;;;6.70;3.28;;;;;;;20.81;100.00;94026.66;5097924;28;20032;-84
2023/07/02 06:47:42;;;;;;;4.43;3.05;;;;;;;;;;5097729;28;20036;-84
2023/07/02 06:50:07;;;;;;;8.13;3.10;;;;;;;21.07;100.00;94036.06;5098906;28;20085;-84
2023/07/02 06:52:33;;;;;;;10.27;3.15;;;;;;;21.12;100.00;94030.47;5099320;28;20632;-84
2023/07/02 06:54:58;;;;;;;6.53;2.92;;;;;;;21.02;100.00;94031.75;5098960;28;20036;-85
2023/07/02 06:57:24;;;;;;;6.53;3.30;;;;;;;21.46;100.00;94024.81;5097477;28;20414;-85
2023/07/02 06:59:50;;;;;;;4.70;3.22;;;;;;;21.14;100.00;94022.16;5099092;28;20445;-85
2023/07/02 07:02:15;;;;;;;5.80;3.58;;;;;;;21.63;100.00;94023.69;5097611;28;20425;-85
2023/07/02 07:04:41;;;;;;;3.40;2.50;;;;;;;21.80;100.00;94021.78;5097741;28;20028;-85
2023/07/02 07:07:07;;;;;;;8.13;3.42;;;;;;;21.53;100.00;94029.53;5097079;28;20032;-84
2023/07/02 07:09:32;;;;;;;5.65;2.85;;;;;;;21.47;100.00;94032.47;5086184;28;20036;-85
2023/07/02 07:11:57;;;;;;;4.57;2.90;;;;;;;21.66;100.00;94028.34;5081188;28;20040;-84
2023/07/02 07:14:23;;;;;;;6.38;3.40;;;;;;;21.70;100.00;94036.44;5097262;28;20429;-84
2023/07/02 07:16:48;;;;;;;7.95;3.13;;;;;;;21.89;100.00;94031.13;5098301;28;20028;-85
2023/07/02 07:19:14;;;;;;;6.35;2.70;;;;;;;22.00;100.00;94031.38;5097277;28;20081;-85
2023/07/02 07:21:40;;;;;;;6.07;3.05;;;;;;;22.10;100.00;94038.06;5097221;28;20032;-85
2023/07/02 07:24:05;;;;;;;4.80;2.88;;;;;;;22.49;100.00;94034.69;5080485;28;20038;-85
2023/07/02 07:26:31;;;;;;;5.15;2.70;;;;;;;22.72;100.00;94033.94;5097043;28;20032;-84
2023/07/02 07:28:57;;;;;;;4.97;2.97;;;;;;;22.77;100.00;94032.91;5096625;28;20036;-84
2023/07/02 07:31:24;;;;;;;9.07;3.38;;;;;;;23.06;100.00;94034.19;5097131;28;20043;-84
2023/07/02 07:33:49;;;;;;;5.50;2.90;;;;;;;22.98;100.00;94032.50;5096978;28;20059;-83
2023/07/02 07:36:15;;;;;;;4.55;2.95;;;;;;;22.90;100.00;94033.53;5079975;28;20464;-84
2023/07/02 07:38:42;;;;;;;6.05;3.17;;;;;;;22.79;100.00;94038.66;5096752;28;20031;-84
2023/07/02 07:41:08;;;;;;;7.28;2.83;;;;;;;23.15;100.00;94036.63;5079699;28;20032;-83
2023/07/02 07:43:34;;;;;;;6.40;3.38;;;;;;;23.09;100.00;94038.81;5096146;28;20034;-84
2023/07/02 07:45:59;;;;;;;6.20;3.35;;;;;;;23.11;100.00;94038.47;5098071;28;20097;-84
2023/07/02 07:48:24;;;;;;;5.85;2.90;;;;;;;23.22;100.00;94036.72;5079449;28;20122;-84
2023/07/02 07:50:50;;;;;;;5.57;3.33;;;;;;;23.12;100.00;94037.34;5096517;28;20330;-84
2023/07/02 07:53:15;;;;;;;5.15;3.10;;;;;;;23.08;100.00;94034.59;5096526;28;20391;-84
2023/07/02 07:55:41;;;;;;;8.02;3.67;;;;;;;23.29;100.00;94036.91;5096588;28;20024;-84
2023/07/02 07:58:06;;;;;;;8.23;3.47;;;;;;;23.50;100.00;94041.03;5096417;28;20076;-84
2023/07/02 08:00:31;;;;;;;5.82;3.60;;;;;;;23.41;100.00;94038.59;5096445;28;20036;-83
2023/07/02 08:02:59;;;;;;;8.18;3.75;;;;;;;23.49;100.00;94041.41;5096624;28;20032;-83
2023/07/02 08:05:24;;;;;;;6.85;3.40;;;;;;;23.35;100.00;94041.94;5097657;28;20385;-84
2023/07/02 08:07:50;;;;;;;7.50;3.88;;;;;;;23.49;100.00;94044.09;5096112;28;20109;-84
2023/07/02 08:10:15;;;;;;;7.32;3.88;;;;;;;23.42;100.00;94039.41;5097435;28;20039;-82
2023/07/02 08:12:41;;;;;;;4.57;3.50;;;;;;;23.72;100.00;94046.72;5097282;28;20077;-82
2023/07/02 08:15:07;;;;;;;6.45;3.92;;;;;;;23.95;100.00;94052.03;5096315;28;20165;-82
2023/07/02 08:17:32;;;;;;;5.80;3.33;;;;;;;24.06;100.00;94044.16;5095911;28;20038;-83
2023/07/02 08:19:58;;;;;;;6.68;3.65;;;;;;;23.93;100.00;94048.94;5077331;28;20032;-82
2023/07/02 08:22:23;;;;;;;5.45;3.53;;;;;;;23.90;100.00;94049.66;5087167;28;20039;-81
2023/07/02 08:24:50;;;;;;;5.35;3.25;;;;;;;24.62;100.00;94044.47;5095910;28;20035;-82
2023/07/02 08:27:18;;;;;;;5.05;3.25;;;;;;;24.53;100.00;94047.44;5096002;28;20078;-82
2023/07/02 08:29:44;;;;;;;4.40;2.90;;;;;;;24.88;100.00;94045.56;5079398;28;20441;-82
2023/07/02 08:32:10;;;;;;;6.13;3.45;;;;;;;25.03;100.00;94053.75;5095915;28;20051;-82
2023/07/02 08:34:35;;;;;;;5.13;3.22;;;;;;;24.67;100.00;94043.38;5079213;28;20024;-81
2023/07/02 08:37:01;;;;;;;6.45;3.50;;;;;;;24.87;100.00;94049.38;5095920;28;20016;-82
2023/07/02 08:39:26;;;;;;;5.57;3.20;;;;;;;24.61;100.00;94053.66;5095779;28;20122;-82
2023/07/02 08:41:51;;;;;;;5.45;3.05;;;;;;;24.35;100.00;94049.13;5095818;28;20031;-82
2023/07/02 08:44:19;;;;;;;5.03;3.30;;;;;;;24.21;100.00;94045.13;5095808;28;20035;-82
2023/07/02 08:46:47;;;;;;;4.18;2.85;;;;;;;24.12;100.00;94053.44;5095491;28;20035;-81
2023/07/02 08:49:12;;;;;;;7.05;2.83;;;;;;;24.16;100.00;94053.47;5095689;28;20028;-82
2023/07/02 08:51:38;;;;;;;7.10;3.38;;;;;;;24.59;100.00;94047.88;5078903;28;20032;-83
2023/07/02 08:54:04;;;;;;;4.45;2.80;;;;;;;24.66;100.00;94044.53;5095243;28;20052;-82
2023/07/02 08:56:30;;;;;;;7.28;3.85;;;;;;;24.97;100.00;94051.41;5095678;28;20020;-83
2023/07/02 08:58:55;;;;;;;7.85;3.20;;;;;;;24.84;100.00;94052.78;5096652;28;20051;-83
2023/07/02 09:01:21;;;;;;;5.55;3.08;;;;;;;25.07;100.00;94054.53;5095693;28;20064;-83
2023/07/02 09:03:46;;;;;;;8.93;3.22;;;;;;;25.13;100.00;94056.53;5096705;28;20028;-83
2023/07/02 09:06:17;;;;;;;4.97;3.00;;;;;;;24.98;100.00;94057.50;5078988;28;20035;-82
2023/07/02 09:08:42;;;;;;;7.35;3.55;;;;;;;24.61;100.00;94056.31;5094802;28;20043;-83
2023/07/02 09:11:13;;;;;;;6.28;3.88;;;;;;;24.96;100.00;94054.44;5095477;28;20036;-83
2023/07/02 09:13:49;;;;;;;6.30;3.17;;;;;;;25.16;100.00;94056.91;5095349;28;20031;-83
2023/07/02 09:16:41;;;;;;;5.00;3.50;;;;;;;25.69;100.00;94056.63;5095429;28;20024;-83
2023/07/02 09:19:08;;;;;;;5.03;3.28;;;;;;;25.45;100.00;94057.97;5094792;28;20055;-83
2023/07/02 09:21:49;;;;;;;5.05;3.20;;;;;;;25.62;100.00;94063.88;5078534;28;20035;-85
2023/07/02 09:24:19;;;;;;;4.82;3.28;;;;;;;26.42;100.00;94062.47;5078313;28;20028;-84
2023/07/02 09:26:45;;;;;;;4.25;3.03;;;;;;;26.14;97.88;94068.44;5095901;28;20038;-84
2023/07/02 09:29:10;;;;;;;4.63;2.88;;;;;;;25.30;100.00;94061.66;5096517;28;20032;-83
2023/07/02 09:31:46;;;;;;;3.60;2.85;;;;;;;25.86;91.19;94059.06;5096542;28;20034;-83
2023/07/02 09:34:12;;;;;;;5.55;3.10;;;;;;;26.00;92.95;94058.38;5078704;28;20081;-84
2023/07/02 09:36:40;;;;;;;5.85;3.50;;;;;;;26.53;93.07;94062.50;5078463;28;20028;-84
2023/07/02 09:39:10;;;;;;;9.63;3.10;;;;;;;25.65;100.00;94055.84;5078904;28;20056;-86
2023/07/02 09:41:36;;;;;;;5.65;2.83;;;;;;;26.04;86.69;94057.25;5058390;28;20123;-84
2023/07/02 09:44:02;;;;;;;8.75;3.28;;;;;;;25.95;100.00;94054.91;5058517;28;20052;-85
2023/07/02 09:46:28;;;;;;;5.95;2.90;;;;;;;26.26;99.77;94060.09;5068918;28;20034;-83
2023/07/02 09:48:53;;;;;;;5.68;3.10;;;;;;;26.45;98.10;94064.38;5078062;28;20134;-85
2023/07/02 09:51:19;;;;;;;4.30;2.95;;;;;;;25.83;100.00;94061.34;5095212;28;20114;-85
2023/07/02 09:53:45;;;;;;;4.13;2.95;;;;;;;25.78;100.00;94058.25;5095373;28;20081;-85
2023/07/02 09:56:11;;;;;;;5.75;2.78;;;;;;;25.88;100.00;94059.44;5078076;28;20131;-84
2023/07/02 09:58:36;;;;;;;4.72;3.00;;;;;;;25.35;100.00;94056.72;5094750;28;20427;-85
2023/07/02 10:01:02;;;;;;;3.03;2.40;;;;;;;25.24;100.00;94061.22;5078359;28;20203;-84
2023/07/02 10:03:31;;;;;;;3.33;2.70;;;;;;;25.32;100.00;94059.38;5095055;28;20115;-85
2023/07/02 10:06:06;;;;;;;3.72;2.63;;;;;;;25.63;100.00;94060.81;5096669;28;20028;-85
2023/07/02 10:08:32;;;;;;;4.63;2.60;;;;;;;26.19;100.00;94060.03;5099638;28;20081;-85
2023/07/02 10:11:13;;;;;;;4.15;2.75;;;;;;;26.27;100.00;94063.53;5098569;28;20031;-85
2023/07/02 10:13:39;;;;;;;6.53;3.10;;;;;;;26.40;100.00;94062.06;5081882;28;20035;-85
2023/07/02 10:16:06;;;;;;;5.07;2.50;;;;;;;26.42;98.30;94064.41;5098553;28;20073;-86
2023/07/02 10:18:31;;;;;;;3.80;2.67;;;;;;;26.34;96.35;94063.59;5081658;28;20028;-85
2023/07/02 10:20:57;;;;;;;4.60;3.00;;;;;;;26.10;99.81;94065.72;5081746;28;20055;-85
2023/07/02 10:23:35;;;;;;;4.65;2.95;;;;;;;25.85;100.00;94069.00;5098496;28;20470;-85
2023/07/02 10:26:14;;;;;;;5.90;2.95;;;;;;;25.92;100.00;94062.91;5098264;28;20035;-85
2023/07/02 10:28:40;;;;;;;4.22;2.75;;;;;;;25.54;100.00;94061.13;5099076;28;20433;-85
2023/07/02 10:31:17;;;;;;;4.55;3.13;;;;;;;25.57;100.00;94064.97;5098260;28;20032;-83
2023/07/02 10:33:46;;;;;;;4.30;2.80;;;;;;;25.83;100.00;94063.25;5098430;28;20138;-84
2023/07/02 10:36:22;;;;;;;5.13;2.80;;;;;;;25.86;100.00;94059.06;5098060;28;20024;-85
2023/07/02 10:38:48;;;;;;;4.47;2.70;;;;;;;26.07;100.00;94058.44;5097734;28;20073;-84
2023/07/02 10:41:24;;;;;;;5.38;2.85;;;;;;;25.61;100.00;94065.00;5098072;28;20103;-83
2023/07/02 10:43:49;;;;;;;4.80;2.90;;;;;;;25.24;100.00;94055.84;5098226;28;20341;-83
2023/07/02 10:46:21;;;;;;;3.78;2.50;;;;;;;26.10;99.79;94060.34;5099003;28;20072;-85
2023/07/02 10:48:54;;;;;;;4.85;2.70;;;;;;;26.30;100.00;94065.47;5072748;28;20521;-83
2023/07/02 10:51:21;;;;;;;4.10;2.63;;;;;;;26.18;100.00;94064.66;5073899;28;20524;-86
2023/07/02 10:53:46;;;;;;;4.68;2.70;;;;;;;26.42;98.12;94057.09;5075431;28;20028;-83
2023/07/02 10:56:18;;;;;;;3.78;2.45;;;;;;;26.80;84.10;94062.22;5081126;28;20020;-86
2023/07/02 10:58:44;;;;;;;6.80;2.70;;;;;;;27.28;84.83;94060.44;5080946;28;20059;-85
2023/07/02 11:01:09;;;;;;;7.97;2.80;;;;;;;26.96;93.35;94064.63;5081085;28;20461;-85
2023/07/02 11:03:35;;;;;;;3.95;2.63;;;;;;;27.29;79.77;94064.69;5080500;28;20046;-85
2023/07/02 11:06:00;;;;;;;5.47;2.42;;;;;;;27.40;86.79;94057.38;5080806;28;20039;-86
2023/07/02 11:08:36;;;;;;;3.35;2.60;;;;;;;26.90;92.99;94055.38;5080758;28;20081;-86
2023/07/02 11:11:08;;;;;;;6.13;2.90;;;;;;;26.82;99.68;94054.53;5097541;28;20508;-85
2023/07/02 11:13:33;;;;;;;4.47;2.75;;;;;;;26.86;74.85;94049.19;5080735;28;20089;-84
2023/07/02 11:15:59;;;;;;;4.28;2.40;;;;;;;27.27;86.79;94051.59;5079457;28;20437;-85
2023/07/02 11:18:24;;;;;;;3.50;2.70;;;;;;;27.23;86.80;94043.53;5080445;28;20108;-85
2023/07/02 11:20:49;;;;;;;3.65;2.33;;;;;;;27.33;83.21;94047.41;5080629;28;20034;-85
2023/07/02 11:23:18;;;;;;;7.50;2.45;;;;;;;27.31;98.57;94049.69;5097814;28;20447;-85